Time;durP1;ratioP1;P1;durP2;ratioP2;P2;SDS_P1;SDS_P2;PMS_P1;PMS_P2;Temp;Humidity;BMP_temperature;BMP_pressure;BME280_temperature;BME280_humidity;BME280_pressure;Samples;Min_cycle;Max_cycle;Signal;HPM_P1;HPM_P2
2022/12/12 00:12:04;;;;;;;14.85;9.15;;;;;;;-2.16;75.14;99058.53;30615307;28;97376;-67
2022/12/12 00:27:05;;;;;;;16.33;9.07;;;;;;;-2.11;75.21;99061.59;30614160;28;96815;-66
2022/12/12 00:42:05;;;;;;;17.70;10.20;;;;;;;-2.14;75.60;99061.84;30613149;28;96621;-67
2022/12/12 00:57:05;;;;;;;13.18;7.82;;;;;;;-2.02;75.52;99069.66;30611439;28;96450;-67
2022/12/12 01:12:06;;;;;;;27.30;11.30;;;;;;;-2.06;75.57;99075.13;30610633;28;96882;-69
2022/12/12 01:27:06;;;;;;;21.17;10.95;;;;;;;-2.02;76.17;99080.09;30609383;28;96698;-72
2022/12/12 01:42:15;;;;;;;19.17;9.15;;;;;;;-1.94;75.91;99064.69;30608626;28;97123;-68
2022/12/12 01:57:23;;;;;;;16.52;9.23;;;;;;;-1.88;76.04;99062.44;30610863;28;96613;-68
2022/12/12 02:12:24;;;;;;;19.70;10.07;;;;;;;-1.89;76.08;99070.41;30626515;28;96783;-68
2022/12/12 02:28:00;;;;;;;19.80;10.20;;;;;;;-1.87;76.02;99074.56;30625782;28;97069;-67
2022/12/12 02:43:22;;;;;;;15.85;9.45;;;;;;;-1.78;76.09;99073.00;30624296;28;97005;-66
2022/12/12 02:58:22;;;;;;;15.40;9.30;;;;;;;-1.71;76.30;99075.97;30623060;28;96625;-68
2022/12/12 03:13:57;;;;;;;13.68;8.07;;;;;;;-1.71;76.46;99070.75;30619295;28;97152;-67
2022/12/12 03:29:10;;;;;;;15.60;7.80;;;;;;;-1.71;76.56;99066.38;30619780;28;97328;-69
2022/12/12 03:44:17;;;;;;;13.68;7.88;;;;;;;-1.67;76.11;99068.75;30618275;28;97483;-68
2022/12/12 03:59:38;;;;;;;20.52;9.38;;;;;;;-1.65;76.35;99056.38;30616516;28;96965;-68
2022/12/12 04:14:48;;;;;;;16.92;8.50;;;;;;;-1.66;76.33;99050.34;30613623;28;96645;-69
2022/12/12 04:30:05;;;;;;;14.85;8.55;;;;;;;-1.62;76.75;99045.72;30612950;28;96849;-70
2022/12/12 04:45:10;;;;;;;19.75;8.68;;;;;;;-1.68;76.52;99051.41;30612478;28;96674;-68
2022/12/12 05:00:12;;;;;;;22.40;9.00;;;;;;;-1.64;77.00;99044.97;30611314;28;96802;-69
2022/12/12 05:15:14;;;;;;;14.63;8.85;;;;;;;-1.70;76.81;99033.25;30607228;28;96912;-71
2022/12/12 05:30:15;;;;;;;15.13;9.00;;;;;;;-1.63;77.00;99044.84;30600174;28;97734;-67
2022/12/12 05:45:15;;;;;;;17.33;7.78;;;;;;;-1.57;77.05;99044.41;30605975;28;98355;-69
2022/12/12 06:00:16;;;;;;;16.30;7.78;;;;;;;-1.49;77.13;99053.41;30619879;28;97708;-67
2022/12/12 06:15:16;;;;;;;13.98;7.50;;;;;;;-1.48;77.11;99050.66;30520246;28;97235;-68
2022/12/12 06:30:17;;;;;;;15.60;8.45;;;;;;;-1.43;77.28;99061.59;30516719;28;97327;-66
2022/12/12 06:45:17;;;;;;;15.27;8.32;;;;;;;-1.34;77.18;99070.47;30512950;28;96748;-67
2022/12/12 07:00:18;;;;;;;12.90;7.68;;;;;;;-1.24;77.37;99086.28;30512587;28;97295;-67
2022/12/12 07:15:18;;;;;;;15.68;8.95;;;;;;;-1.16;77.39;99086.50;30569837;28;98155;-68
2022/12/12 07:30:19;;;;;;;16.60;7.57;;;;;;;-1.08;77.36;99094.53;30627305;28;96553;-68
2022/12/12 07:45:19;;;;;;;9.07;5.63;;;;;;;-0.93;77.45;99102.94;30623972;28;97437;-68
2022/12/12 08:00:20;;;;;;;10.25;6.38;;;;;;;-0.78;77.34;99102.66;30622731;28;96579;-67
2022/12/12 08:15:21;;;;;;;16.33;7.75;;;;;;;-0.60;77.22;99109.00;30620732;28;98383;-65
2022/12/12 08:30:21;;;;;;;13.65;6.43;;;;;;;-0.41;77.25;99116.19;30614289;28;96684;-67
2022/12/12 08:45:22;;;;;;;13.73;7.72;;;;;;;-0.32;76.80;99132.91;30610817;28;96735;-68
2022/12/12 09:00:22;;;;;;;12.25;6.38;;;;;;;-0.32;77.08;99137.31;30607384;28;96757;-67
2022/12/12 09:15:23;;;;;;;9.13;6.35;;;;;;;-0.32;77.13;99140.75;30624161;28;96654;-65
2022/12/12 09:30:24;;;;;;;10.63;6.88;;;;;;;-0.29;77.07;99144.91;30603284;28;96678;-66
2022/12/12 09:45:25;;;;;;;11.07;6.30;;;;;;;-0.11;76.89;99142.53;30509862;28;96686;-67
2022/12/12 10:00:30;;;;;;;12.55;7.18;;;;;;;0.04;76.64;99150.91;30506605;28;96692;-66
2022/12/12 10:15:38;;;;;;;;;;;;;;;0.32;76.67;99133.72;30502533;28;96781;-65
2022/12/12 10:31:09;;;;;;;12.85;6.68;;;;;;;0.47;76.29;99148.13;30503978;28;96584;-67
2022/12/12 10:46:35;;;;;;;14.63;6.47;;;;;;;0.52;75.73;99150.34;30569368;28;96691;-67
2022/12/12 11:01:36;;;;;;;13.02;7.18;;;;;;;0.76;75.77;99147.41;30552279;28;97290;-66
2022/12/12 11:16:43;;;;;;;12.80;7.90;;;;;;;0.95;75.77;99146.63;30557183;28;97187;-65
2022/12/12 11:31:44;;;;;;;13.32;7.07;;;;;;;1.19;74.97;99148.06;30589970;28;97690;-62
2022/12/12 11:46:44;;;;;;;10.57;6.63;;;;;;;1.19;74.40;99150.69;30608129;28;97854;-67
2022/12/12 12:02:09;;;;;;;14.07;6.28;;;;;;;1.18;74.28;99159.53;30597526;28;97222;-67
2022/12/12 12:17:24;;;;;;;9.40;5.38;;;;;;;1.28;73.70;99167.41;30604048;28;96727;-71
2022/12/12 12:32:45;;;;;;;10.20;5.28;;;;;;;1.46;73.96;99172.81;30604387;28;96729;-68
2022/12/12 12:48:10;;;;;;;8.75;4.63;;;;;;;1.44;73.48;99183.44;30588458;28;97522;-68
2022/12/12 13:03:21;;;;;;;4.97;3.00;;;;;;;1.26;72.82;99185.91;30492778;28;96755;-64
2022/12/12 13:18:22;;;;;;;7.28;3.65;;;;;;;1.06;72.45;99202.56;30487545;28;97297;-66
2022/12/12 13:33:46;;;;;;;7.53;4.00;;;;;;;0.88;72.27;99224.19;30486646;28;97664;-66
2022/12/12 13:49:14;;;;;;;5.80;3.57;;;;;;;0.67;72.12;99240.78;30485708;28;97333;-68
2022/12/12 14:04:33;;;;;;;6.82;3.75;;;;;;;0.38;71.77;99266.81;30500709;28;97475;-67
2022/12/12 14:19:36;;;;;;;8.30;3.63;;;;;;;0.14;71.83;99269.69;30561939;28;96904;-72
2022/12/12 14:35:04;;;;;;;5.88;4.05;;;;;;;-0.19;71.99;99263.63;30619476;28;97086;-70
2022/12/12 14:50:10;;;;;;;5.45;3.13;;;;;;;-0.50;72.01;99270.47;30617128;28;96675;-71
2022/12/12 15:05:13;;;;;;;7.20;3.65;;;;;;;-0.53;72.81;99289.88;30598928;28;96958;-73
2022/12/12 15:20:20;;;;;;;9.65;4.20;;;;;;;-0.35;72.98;99309.31;30495811;28;96677;-72
2022/12/12 15:35:21;;;;;;;8.85;2.70;;;;;;;-0.31;72.59;99320.38;30603534;28;97750;-69
2022/12/12 15:50:39;;;;;;;6.97;4.63;;;;;;;-0.42;72.51;99323.84;30609511;28;97567;-71
2022/12/12 16:05:39;;;;;;;5.70;3.65;;;;;;;-0.81;72.35;99339.09;30605596;28;96778;-68
2022/12/12 16:20:48;;;;;;;8.70;4.82;;;;;;;-1.04;72.52;99340.84;30564469;28;97560;-70
2022/12/12 16:35:48;;;;;;;5.00;3.65;;;;;;;-1.22;72.65;99375.28;30549740;28;97020;-68
2022/12/12 16:50:51;;;;;;;6.55;3.55;;;;;;;-1.13;72.94;99375.53;30606667;28;96895;-70
2022/12/12 17:05:52;;;;;;;5.38;2.88;;;;;;;-1.12;72.74;99387.66;30605620;28;96718;-67
2022/12/12 17:20:53;;;;;;;4.45;2.67;;;;;;;-1.27;72.04;99407.91;30608279;28;97079;-67
2022/12/12 17:35:58;;;;;;;5.30;2.97;;;;;;;-1.60;72.22;99414.66;30620652;28;96837;-67
2022/12/12 17:51:01;;;;;;;5.65;3.63;;;;;;;-1.81;72.59;99440.56;30625776;28;96720;-67
2022/12/12 18:06:02;;;;;;;6.47;3.63;;;;;;;-2.04;72.74;99461.28;30623729;28;98118;-68
2022/12/12 18:21:04;;;;;;;4.75;3.08;;;;;;;-2.07;72.87;99466.72;30623173;28;96667;-67
2022/12/12 18:36:07;;;;;;;6.00;4.47;;;;;;;-2.06;72.85;99491.91;30623923;28;96684;-67
2022/12/12 18:51:22;;;;;;;6.45;4.28;;;;;;;-2.02;73.07;99503.78;30622628;28;96626;-68
2022/12/12 19:06:30;;;;;;;4.60;3.00;;;;;;;-1.98;72.90;99512.22;30588761;28;96783;-68
2022/12/12 19:21:32;;;;;;;7.38;4.15;;;;;;;-2.09;72.49;99518.19;30572599;28;96729;-70
2022/12/12 19:36:34;;;;;;;5.50;2.80;;;;;;;-2.09;72.98;99524.25;30569835;28;97301;-67
2022/12/12 19:51:38;;;;;;;6.88;5.15;;;;;;;-2.06;72.90;99544.09;30596562;28;97002;-68
2022/12/12 20:06:44;;;;;;;10.20;5.15;;;;;;;-2.08;72.60;99561.63;30572591;28;96771;-67
2022/12/12 20:21:46;;;;;;;9.00;4.43;;;;;;;-2.07;72.84;99564.13;30545219;28;96856;-68
2022/12/12 20:36:46;;;;;;;9.27;4.55;;;;;;;-2.16;72.41;99569.13;30506884;28;96683;-68
2022/12/12 20:51:47;;;;;;;9.20;5.25;;;;;;;-2.41;72.87;99587.28;30543612;28;97426;-67
2022/12/12 21:06:48;;;;;;;7.97;4.57;;;;;;;-2.43;72.63;99612.63;30492693;28;98032;-67
2022/12/12 21:21:49;;;;;;;3.72;2.15;;;;;;;-2.58;72.88;99637.13;30506430;28;97587;-63
2022/12/12 21:36:54;;;;;;;5.00;3.80;;;;;;;-2.67;72.16;99627.28;30608400;28;96981;-72
2022/12/12 21:51:59;;;;;;;8.05;4.53;;;;;;;-2.70;72.93;99643.13;30605333;28;97705;-69
2022/12/12 22:22:56;;;;;;;7.60;4.57;;;;;;;-2.70;72.71;99648.34;30619568;28;97430;-66
2022/12/12 22:37:56;;;;;;;5.13;3.25;;;;;;;-2.89;72.47;99654.72;30624179;28;99779;-64
2022/12/12 22:52:57;;;;;;;6.25;4.25;;;;;;;-2.93;72.78;99659.28;30623311;28;125376;-69
2022/12/12 23:07:57;;;;;;;7.65;4.47;;;;;;;-2.78;72.24;99661.88;30624626;28;126847;-66
2022/12/12 23:22:59;;;;;;;9.30;4.90;;;;;;;-2.77;72.73;99663.56;30623748;28;98408;-71
2022/12/12 23:37:59;;;;;;;8.90;4.75;;;;;;;-2.75;72.57;99670.34;30619829;28;96624;-69
2022/12/12 23:53:00;;;;;;;8.20;5.10;;;;;;;-2.68;73.17;99665.53;30618605;28;97426;-65
